Time;durP1;ratioP1;P1;durP2;ratioP2;P2;SDS_P1;SDS_P2;PMS_P1;PMS_P2;Temp;Humidity;BMP_temperature;BMP_pressure;BME280_temperature;BME280_humidity;BME280_pressure;Samples;Min_cycle;Max_cycle;Signal;HPM_P1;HPM_P2
2022/05/04 00:00:37;;;;;;;8.00;6.82;;;;;;;;;;5088794;28;20095;-72
2022/05/04 00:03:03;;;;;;;7.78;6.93;;;;;;;;;;5088546;28;20118;-72
2022/05/04 00:05:31;;;;;;;10.63;7.75;;;;;;;;;;5085994;28;20027;-72
2022/05/04 00:07:57;;;;;;;7.30;6.55;;;;;;;;;;5082390;28;20474;-72
2022/05/04 00:10:24;;;;;;;6.50;5.88;;;;;;;;;;5083559;28;20510;-73
2022/05/04 00:12:50;;;;;;;7.70;6.20;;;;;;;;;;5083681;28;20020;-72
2022/05/04 00:15:16;;;;;;;7.35;5.05;;;;;;;;;;5083304;28;20604;-72
2022/05/04 00:17:42;;;;;;;4.72;4.22;;;;;;;;;;5083191;28;20024;-75
2022/05/04 00:20:09;;;;;;;4.93;4.30;;;;;;;;;;5083486;28;20028;-72
2022/05/04 00:22:35;;;;;;;8.55;4.70;;;;;;;;;;5083754;28;20020;-75
2022/05/04 00:25:02;;;;;;;8.75;5.38;;;;;;;;;;5083465;28;20624;-72
2022/05/04 00:27:28;;;;;;;8.15;4.88;;;;;;;;;;5083032;28;20675;-71
2022/05/04 00:29:54;;;;;;;10.55;5.30;;;;;;;;;;5083197;28;20075;-76
2022/05/04 00:32:21;;;;;;;10.48;4.95;;;;;;;;;;5083343;28;20281;-72
2022/05/04 00:34:47;;;;;;;7.03;4.70;;;;;;;;;;5082957;28;20103;-72
2022/05/04 00:37:14;;;;;;;5.82;4.25;;;;;;;;;;5082155;28;20384;-72
2022/05/04 00:39:40;;;;;;;5.82;4.15;;;;;;;;;;5082798;28;20417;-72
2022/05/04 00:42:10;;;;;;;10.35;4.72;;;;;;;;;;5083093;28;20391;-71
2022/05/04 00:44:36;;;;;;;5.75;4.57;;;;;;;;;;5083257;28;20032;-72
2022/05/04 00:47:03;;;;;;;5.85;4.75;;;;;;;;;;5081337;28;20061;-72
2022/05/04 00:49:30;;;;;;;9.10;5.03;;;;;;;;;;5083079;28;20040;-72
2022/05/04 00:51:56;;;;;;;6.55;5.10;;;;;;;;;;5082607;28;20031;-78
2022/05/04 00:54:22;;;;;;;7.20;5.20;;;;;;;;;;5082702;28;20257;-71
2022/05/04 00:56:48;;;;;;;8.05;5.65;;;;;;;;;;5081536;28;20501;-71
2022/05/04 00:59:14;;;;;;;8.32;5.75;;;;;;;;;;5082028;28;20390;-72
2022/05/04 01:01:40;;;;;;;7.85;5.25;;;;;;;;;;5072695;28;20028;-72
2022/05/04 01:04:07;;;;;;;7.22;5.97;;;;;;;;;;5080133;28;20036;-71
2022/05/04 01:06:34;;;;;;;8.27;6.05;;;;;;;;;;5081786;28;20051;-73
2022/05/04 01:09:00;;;;;;;7.63;6.20;;;;;;;;;;5082320;28;20040;-71
2022/05/04 01:11:26;;;;;;;7.22;5.88;;;;;;;;;;5082519;28;20043;-72
2022/05/04 01:14:02;;;;;;;9.30;5.70;;;;;;;;;;5082970;28;20036;-73
2022/05/04 01:16:29;;;;;;;8.00;5.75;;;;;;;;;;5081978;28;20024;-73
2022/05/04 01:18:55;;;;;;;7.53;5.45;;;;;;;;;;5082558;28;20077;-71
2022/05/04 01:21:22;;;;;;;8.20;5.15;;;;;;;;;;5082289;28;20024;-74
2022/05/04 01:23:48;;;;;;;6.13;4.82;;;;;;;;;;5082196;28;20028;-72
2022/05/04 01:26:17;;;;;;;6.05;4.60;;;;;;;;;;5082545;28;20078;-72
2022/05/04 01:28:44;;;;;;;6.10;4.65;;;;;;;;;;5081683;28;20079;-72
2022/05/04 01:31:10;;;;;;;8.02;4.97;;;;;;;;;;5082138;28;20067;-72
2022/05/04 01:33:37;;;;;;;6.03;4.90;;;;;;;;;;5081815;28;20028;-72
2022/05/04 01:36:03;;;;;;;6.00;5.10;;;;;;;;;;5082012;28;20039;-71
2022/05/04 01:38:29;;;;;;;5.70;5.10;;;;;;;;;;5081728;28;20044;-72
2022/05/04 01:40:55;;;;;;;7.63;5.00;;;;;;;;;;5081966;28;20077;-72
2022/05/04 01:43:22;;;;;;;6.88;4.55;;;;;;;;;;5082145;28;20024;-72
2022/05/04 01:45:48;;;;;;;7.30;4.88;;;;;;;;;;5081397;28;20625;-72
2022/05/04 01:48:14;;;;;;;7.22;5.18;;;;;;;;;;5080299;28;20031;-71
2022/05/04 01:50:40;;;;;;;5.65;4.93;;;;;;;;;;5081227;28;20032;-71
2022/05/04 01:53:06;;;;;;;7.95;4.68;;;;;;;;;;5081108;28;20037;-76
2022/05/04 01:55:36;;;;;;;7.97;5.10;;;;;;;;;;5082135;28;20035;-74
2022/05/04 01:58:03;;;;;;;5.18;4.68;;;;;;;;;;5081744;28;20526;-71
2022/05/04 02:00:29;;;;;;;7.72;4.70;;;;;;;;;;5081840;28;20038;-73
2022/05/04 02:02:55;;;;;;;7.32;4.80;;;;;;;;;;5081597;28;20028;-73
2022/05/04 02:05:22;;;;;;;6.60;4.50;;;;;;;;;;5081411;28;20031;-73
2022/05/04 02:07:48;;;;;;;6.88;4.85;;;;;;;;;;5083531;28;20040;-72
2022/05/04 02:10:15;;;;;;;7.28;4.53;;;;;;;;;;5083383;28;20036;-72
2022/05/04 02:12:43;;;;;;;5.00;4.35;;;;;;;;;;5084055;28;20127;-71
2022/05/04 02:15:10;;;;;;;6.15;4.72;;;;;;;;;;5083570;28;20677;-72
2022/05/04 02:17:37;;;;;;;7.53;4.53;;;;;;;;;;5083587;28;20086;-71
2022/05/04 02:20:03;;;;;;;6.15;4.47;;;;;;;;;;5083827;28;20028;-74
2022/05/04 02:22:29;;;;;;;5.20;4.70;;;;;;;;;;5083453;28;20028;-71
2022/05/04 02:24:56;;;;;;;7.80;4.95;;;;;;;;;;5083533;28;20024;-72
2022/05/04 02:27:22;;;;;;;7.50;4.57;;;;;;;;;;5083279;28;20031;-72
2022/05/04 02:29:48;;;;;;;5.70;5.10;;;;;;;;;;5074387;28;20046;-73
2022/05/04 02:32:15;;;;;;;6.85;4.90;;;;;;;;;;5080779;28;20043;-75
2022/05/04 02:40:11;;;;;;;8.18;6.00;;;;;;;;;;5081285;28;20042;-72
2022/05/04 02:42:38;;;;;;;10.50;5.88;;;;;;;;;;5081090;28;20024;-72
2022/05/04 02:45:05;;;;;;;7.20;5.75;;;;;;;;;;5081361;28;20066;-72
2022/05/04 02:47:32;;;;;;;7.50;6.00;;;;;;;;;;5081301;28;20117;-74
2022/05/04 02:49:58;;;;;;;10.02;5.53;;;;;;;;;;5081248;28;20044;-72
2022/05/04 02:52:24;;;;;;;7.53;5.60;;;;;;;;;;5080811;28;20032;-72
2022/05/04 02:54:50;;;;;;;9.18;5.65;;;;;;;;;;5081145;28;20028;-72
2022/05/04 02:57:16;;;;;;;8.00;6.20;;;;;;;;;;5080896;28;20032;-72
2022/05/04 02:59:42;;;;;;;9.75;6.22;;;;;;;;;;5081281;28;20036;-71
2022/05/04 03:02:27;;;;;;;9.38;5.95;;;;;;;;;;5083574;28;20043;-72
2022/05/04 03:04:54;;;;;;;6.85;5.63;;;;;;;;;;5076800;28;20027;-71
2022/05/04 03:07:20;;;;;;;7.15;6.30;;;;;;;;;;5084688;28;20043;-72
2022/05/04 03:09:46;;;;;;;7.30;5.72;;;;;;;;;;5082689;28;20564;-72
2022/05/04 03:12:12;;;;;;;6.78;5.53;;;;;;;;;;5085263;28;20089;-71
2022/05/04 03:14:38;;;;;;;10.13;5.85;;;;;;;;;;5084872;28;20039;-71
2022/05/04 03:17:05;;;;;;;6.32;5.45;;;;;;;;;;5082245;28;20032;-71
2022/05/04 03:19:31;;;;;;;9.23;5.03;;;;;;;;;;5082604;28;20039;-74
2022/05/04 03:21:57;;;;;;;8.23;5.30;;;;;;;;;;5082339;28;20024;-73
2022/05/04 03:24:23;;;;;;;9.02;5.45;;;;;;;;;;5082177;28;20255;-71
2022/05/04 03:26:49;;;;;;;6.90;5.30;;;;;;;;;;5082271;28;20017;-72
2022/05/04 03:29:16;;;;;;;7.80;5.80;;;;;;;;;;5082411;28;20728;-73
2022/05/04 03:31:42;;;;;;;6.97;5.47;;;;;;;;;;5081719;28;20028;-75
2022/05/04 03:34:08;;;;;;;6.30;5.05;;;;;;;;;;5074946;28;20034;-73
2022/05/04 03:36:37;;;;;;;7.35;5.78;;;;;;;;;;5081031;28;20556;-72
2022/05/04 03:39:04;;;;;;;7.10;4.88;;;;;;;;;;5082124;28;20035;-72
2022/05/04 03:41:31;;;;;;;10.88;5.85;;;;;;;;;;5082123;28;20077;-74
2022/05/04 03:43:57;;;;;;;6.90;5.32;;;;;;;;;;5081106;28;20081;-71
2022/05/04 03:46:24;;;;;;;7.40;5.70;;;;;;;;;;5082229;28;20028;-72
2022/05/04 03:48:51;;;;;;;7.93;6.13;;;;;;;;;;5081177;28;20062;-71
2022/05/04 03:51:21;;;;;;;7.35;6.03;;;;;;;;;;5081473;28;20024;-72
2022/05/04 03:53:47;;;;;;;9.18;6.30;;;;;;;;;;5081493;28;20016;-72
2022/05/04 03:56:14;;;;;;;7.70;5.80;;;;;;;;;;5081195;28;20024;-71
2022/05/04 03:58:40;;;;;;;6.60;5.57;;;;;;;;;;5081795;28;20034;-72
2022/05/04 04:01:06;;;;;;;7.47;5.75;;;;;;;;;;5081861;28;20040;-72
2022/05/04 04:03:33;;;;;;;9.75;6.05;;;;;;;;;;5081610;28;20032;-72
2022/05/04 04:06:00;;;;;;;8.15;5.53;;;;;;;;;;5080427;28;20072;-71
2022/05/04 04:08:26;;;;;;;8.55;5.65;;;;;;;;;;5081437;28;20063;-71
2022/05/04 04:10:52;;;;;;;8.10;5.45;;;;;;;;;;5079446;28;20107;-73
2022/05/04 04:13:19;;;;;;;7.00;5.45;;;;;;;;;;5080591;28;20073;-72
2022/05/04 04:15:46;;;;;;;7.45;5.68;;;;;;;;;;5081173;28;20039;-72
2022/05/04 04:18:12;;;;;;;7.15;5.40;;;;;;;;;;5080699;28;20107;-73
2022/05/04 04:23:31;;;;;;;8.20;5.43;;;;;;;;;;5087704;28;20040;-72
2022/05/04 04:25:58;;;;;;;7.90;5.20;;;;;;;;;;5079270;28;20028;-72
2022/05/04 04:28:24;;;;;;;7.63;4.93;;;;;;;;;;5072932;28;20047;-71
2022/05/04 04:30:50;;;;;;;7.43;4.63;;;;;;;;;;5080123;28;20043;-72
2022/05/04 04:33:16;;;;;;;6.88;5.18;;;;;;;;;;5080567;28;20406;-72
2022/05/04 04:35:43;;;;;;;7.75;5.00;;;;;;;;;;5080983;28;20028;-72
2022/05/04 04:38:09;;;;;;;8.07;4.82;;;;;;;;;;5080183;28;20047;-72
2022/05/04 04:40:35;;;;;;;10.98;5.20;;;;;;;;;;5080840;28;20035;-71
2022/05/04 04:43:01;;;;;;;8.32;5.43;;;;;;;;;;5080290;28;20031;-71
2022/05/04 04:45:28;;;;;;;7.13;5.45;;;;;;;;;;5080196;28;20028;-72
2022/05/04 04:47:56;;;;;;;15.50;7.10;;;;;;;;;;5080829;28;20035;-72
2022/05/04 04:50:22;;;;;;;10.05;6.70;;;;;;;;;;5080244;28;20046;-72
2022/05/04 04:52:49;;;;;;;8.15;5.85;;;;;;;;;;5080229;28;20107;-71
2022/05/04 04:55:15;;;;;;;6.20;4.65;;;;;;;;;;5079235;28;20023;-71
2022/05/04 04:57:41;;;;;;;9.90;4.80;;;;;;;;;;5079351;28;20542;-72
2022/05/04 05:00:07;;;;;;;4.43;4.00;;;;;;;;;;5078796;28;20474;-75
2022/05/04 05:02:36;;;;;;;4.75;3.92;;;;;;;;;;5078998;28;20067;-74
2022/05/04 05:05:03;;;;;;;10.32;6.53;;;;;;;;;;5078676;28;20020;-73
2022/05/04 05:07:29;;;;;;;16.60;10.68;;;;;;;;;;5078339;28;20062;-72
2022/05/04 05:09:56;;;;;;;34.28;18.52;;;;;;;;;;5077021;28;20424;-73
2022/05/04 05:12:22;;;;;;;28.27;15.57;;;;;;;;;;5078107;28;20023;-73
2022/05/04 05:17:34;;;;;;;17.75;10.65;;;;;;;;;;5078676;28;20097;-74
2022/05/04 05:20:00;;;;;;;13.90;10.32;;;;;;;;;;5077424;28;20028;-73
2022/05/04 05:22:26;;;;;;;14.45;11.30;;;;;;;;;;5080097;28;20032;-74
2022/05/04 05:24:52;;;;;;;15.15;9.98;;;;;;;;;;5078790;28;20115;-74
2022/05/04 05:27:18;;;;;;;11.73;9.40;;;;;;;;;;5078973;28;20092;-73
2022/05/04 05:29:44;;;;;;;14.00;9.20;;;;;;;;;;5079362;28;20044;-74
2022/05/04 05:32:10;;;;;;;11.18;8.63;;;;;;;;;;5079748;28;20035;-73
2022/05/04 05:34:37;;;;;;;12.70;8.48;;;;;;;;;;5079409;28;20054;-73
2022/05/04 05:37:03;;;;;;;14.82;9.68;;;;;;;;;;5079803;28;20034;-73
2022/05/04 05:39:29;;;;;;;14.32;9.68;;;;;;;;;;5079514;28;20844;-73
2022/05/04 05:41:55;;;;;;;12.70;8.48;;;;;;;;;;5079385;28;20028;-73
2022/05/04 05:44:21;;;;;;;14.18;9.25;;;;;;;;;;5079553;28;20040;-73
2022/05/04 05:46:47;;;;;;;14.65;9.38;;;;;;;;;;5079332;28;20031;-73
2022/05/04 05:49:13;;;;;;;13.57;9.18;;;;;;;;;;5079508;28;20047;-73
2022/05/04 05:51:40;;;;;;;12.90;8.02;;;;;;;;;;5079137;28;20131;-73
2022/05/04 05:54:06;;;;;;;15.07;7.55;;;;;;;;;;5079322;28;20032;-74
2022/05/04 05:56:32;;;;;;;10.38;7.00;;;;;;;;;;5079310;28;20028;-73
2022/05/04 05:58:59;;;;;;;10.75;8.05;;;;;;;;;;5079552;28;20495;-74
2022/05/04 06:01:25;;;;;;;8.23;6.60;;;;;;;;;;5079545;28;20024;-73
2022/05/04 06:03:52;;;;;;;9.30;6.25;;;;;;;;;;5079360;28;20034;-73
2022/05/04 06:06:19;;;;;;;8.63;5.20;;;;;;;;;;5079489;28;20163;-72
2022/05/04 06:08:45;;;;;;;6.95;5.55;;;;;;;;;;5072584;28;20029;-74
2022/05/04 06:11:11;;;;;;;10.00;5.85;;;;;;;;;;5072448;28;20028;-73
2022/05/04 06:13:37;;;;;;;9.77;5.93;;;;;;;;;;5059472;28;20044;-72
2022/05/04 06:16:03;;;;;;;8.52;6.10;;;;;;;;;;5059150;28;20032;-72
2022/05/04 06:18:30;;;;;;;7.57;5.90;;;;;;;;;;5059111;28;20024;-73
2022/05/04 06:20:56;;;;;;;25.45;7.63;;;;;;;;;;5067199;28;20124;-73
2022/05/04 06:23:22;;;;;;;24.42;7.00;;;;;;;;;;5079616;28;20016;-73
2022/05/04 06:25:48;;;;;;;7.60;6.80;;;;;;;;;;5075984;28;20032;-78
2022/05/04 06:28:14;;;;;;;7.53;6.38;;;;;;;;;;5079295;28;20060;-74
2022/05/04 06:36:10;;;;;;;9.00;6.68;;;;;;;;;;5080074;28;20050;-74
2022/05/04 06:38:36;;;;;;;12.13;7.85;;;;;;;;;;5073690;28;20024;-75
2022/05/04 06:41:05;;;;;;;9.88;8.05;;;;;;;;;;5075641;28;20107;-75
2022/05/04 06:43:32;;;;;;;8.02;6.55;;;;;;;;;;5082997;28;20024;-75
2022/05/04 06:45:58;;;;;;;8.80;7.38;;;;;;;;;;5080284;28;20815;-80
2022/05/04 06:48:25;;;;;;;8.52;6.88;;;;;;;;;;5081254;28;21311;-78
2022/05/04 06:50:51;;;;;;;11.98;6.88;;;;;;;;;;5078964;28;20028;-74
2022/05/04 06:53:18;;;;;;;13.63;7.93;;;;;;;;;;5076848;28;20020;-75
2022/05/04 06:55:44;;;;;;;14.68;7.75;;;;;;;;;;5073651;28;20471;-77
2022/05/04 06:58:11;;;;;;;11.68;6.65;;;;;;;;;;5082664;28;20543;-76
2022/05/04 07:00:37;;;;;;;8.60;6.35;;;;;;;;;;5068683;28;20025;-74
2022/05/04 07:03:03;;;;;;;8.32;6.38;;;;;;;;;;5076249;28;20092;-74
2022/05/04 07:05:29;;;;;;;10.13;7.68;;;;;;;;;;5081438;28;20028;-74
2022/05/04 07:07:55;;;;;;;13.82;8.32;;;;;;;;;;5077376;28;20090;-75
2022/05/04 07:10:21;;;;;;;10.13;7.45;;;;;;;;;;5071738;28;20136;-73
2022/05/04 07:12:48;;;;;;;9.52;7.03;;;;;;;;;;5082129;28;20051;-73
2022/05/04 07:15:15;;;;;;;9.18;7.78;;;;;;;;;;5081791;28;20139;-77
2022/05/04 07:17:41;;;;;;;10.45;7.03;;;;;;;;;;5080708;28;20027;-78
2022/05/04 07:20:08;;;;;;;7.88;6.97;;;;;;;;;;5081376;28;20059;-73
2022/05/04 07:22:35;;;;;;;9.23;7.78;;;;;;;;;;5079962;28;20032;-74
2022/05/04 07:25:01;;;;;;;11.40;7.78;;;;;;;;;;5080712;28;20028;-74
2022/05/04 07:27:27;;;;;;;10.07;7.65;;;;;;;;;;5081814;28;20023;-74
2022/05/04 07:29:53;;;;;;;12.02;7.65;;;;;;;;;;5081458;28;20036;-79
2022/05/04 07:32:19;;;;;;;7.90;6.85;;;;;;;;;;5078357;28;20020;-75
2022/05/04 07:34:46;;;;;;;11.63;6.75;;;;;;;;;;5080908;28;20028;-74
2022/05/04 07:37:12;;;;;;;10.88;7.05;;;;;;;;;;5082571;28;20035;-74
2022/05/04 07:42:26;;;;;;;10.38;7.82;;;;;;;;;;5082452;28;20142;-74
2022/05/04 07:45:07;;;;;;;8.55;6.90;;;;;;;;;;5083486;28;20054;-75
2022/05/04 07:47:34;;;;;;;8.38;7.03;;;;;;;;;;5062943;28;20021;-74
2022/05/04 07:50:01;;;;;;;12.70;8.45;;;;;;;;;;5063605;28;20503;-74
2022/05/04 07:52:27;;;;;;;8.48;6.93;;;;;;;;;;5064102;28;20062;-74
2022/05/04 07:54:54;;;;;;;9.20;7.22;;;;;;;;;;5064399;28;20577;-74
2022/05/04 07:57:20;;;;;;;8.18;6.55;;;;;;;;;;5063755;28;20017;-78
2022/05/04 08:04:16;;;;;;;10.32;6.75;;;;;;;;;;5063237;28;20047;-74
2022/05/04 08:05:18;;;;;;;9.73;6.07;;;;;;;;;;5072701;28;20691;-72
2022/05/04 08:07:44;;;;;;;15.35;12.43;;;;;;;;;;5073616;28;20056;-74
2022/05/04 08:10:10;;;;;;;12.20;7.72;;;;;;;;;;5069711;28;20039;-75
2022/05/04 08:12:36;;;;;;;6.78;6.03;;;;;;;;;;5082709;28;20020;-74
2022/05/04 08:15:03;;;;;;;6.20;5.57;;;;;;;;;;5080971;28;20032;-73
2022/05/04 08:17:29;;;;;;;10.43;6.15;;;;;;;;;;5073733;28;20020;-76
2022/05/04 08:19:55;;;;;;;14.00;8.73;;;;;;;;;;5078662;28;20021;-75
2022/05/04 08:22:22;;;;;;;7.90;6.20;;;;;;;;;;5082407;28;20016;-76
2022/05/04 08:24:48;;;;;;;12.35;6.75;;;;;;;;;;5078370;28;20469;-75
2022/05/04 08:27:14;;;;;;;9.38;6.82;;;;;;;;;;5079470;28;20028;-75
2022/05/04 08:29:41;;;;;;;11.25;8.02;;;;;;;;;;5079568;28;20871;-74
2022/05/04 08:32:07;;;;;;;14.10;8.75;;;;;;;;;;5078503;28;20027;-75
2022/05/04 08:34:33;;;;;;;10.82;6.20;;;;;;;;;;5080118;28;20063;-74
2022/05/04 08:37:00;;;;;;;9.15;6.00;;;;;;;;;;5078310;28;20516;-74
2022/05/04 08:39:26;;;;;;;12.63;8.63;;;;;;;;;;5078436;28;20028;-74
2022/05/04 08:41:52;;;;;;;10.88;8.07;;;;;;;;;;5079235;28;20028;-74
2022/05/04 08:44:19;;;;;;;16.98;11.60;;;;;;;;;;5077100;28;20082;-75
2022/05/04 08:46:45;;;;;;;12.15;6.57;;;;;;;;;;5074905;28;20032;-77
2022/05/04 08:49:12;;;;;;;8.15;5.50;;;;;;;;;;5075420;28;20093;-77
2022/05/04 08:51:39;;;;;;;6.97;5.80;;;;;;;;;;5080452;28;20027;-74
2022/05/04 08:54:07;;;;;;;12.57;6.68;;;;;;;;;;5073448;28;20403;-74
2022/05/04 08:56:34;;;;;;;14.60;8.93;;;;;;;;;;5080058;28;20024;-75
2022/05/04 08:59:03;;;;;;;24.85;14.18;;;;;;;;;;5079304;28;20488;-74
2022/05/04 09:01:31;;;;;;;11.48;7.45;;;;;;;;;;5076743;28;20035;-74
2022/05/04 09:03:59;;;;;;;21.15;12.55;;;;;;;;;;5080154;28;20024;-74
2022/05/04 09:06:26;;;;;;;19.25;11.48;;;;;;;;;;5079783;28;21931;-74
2022/05/04 09:09:06;;;;;;;9.18;6.03;;;;;;;;;;5077607;28;20036;-74
2022/05/04 09:11:32;;;;;;;7.18;5.25;;;;;;;;;;5071534;28;20028;-75
2022/05/04 09:13:59;;;;;;;10.30;6.28;;;;;;;;;;5079548;28;20032;-74
2022/05/04 09:16:26;;;;;;;30.38;16.33;;;;;;;;;;5078273;28;20040;-77
2022/05/04 09:18:53;;;;;;;23.15;12.80;;;;;;;;;;5079547;28;20028;-75
2022/05/04 09:21:21;;;;;;;10.43;6.75;;;;;;;;;;5078604;28;20028;-75
2022/05/04 09:23:49;;;;;;;12.32;6.43;;;;;;;;;;5065945;28;20028;-75
2022/05/04 09:26:16;;;;;;;10.23;6.78;;;;;;;;;;5079050;28;20106;-72
2022/05/04 09:28:42;;;;;;;7.75;5.20;;;;;;;;;;5079141;28;20047;-73
2022/05/04 09:31:08;;;;;;;13.85;8.05;;;;;;;;;;5078337;28;20485;-72
2022/05/04 09:33:35;;;;;;;23.15;12.05;;;;;;;;;;5078620;28;20709;-73
2022/05/04 09:36:05;;;;;;;7.78;6.05;;;;;;;;;;5079712;28;20667;-73
2022/05/04 09:46:49;;;;;;;6.75;5.50;;;;;;;;;;5080845;28;20150;-73
2022/05/04 09:49:19;;;;;;;7.95;5.25;;;;;;;;;;5072119;28;20031;-73
2022/05/04 09:51:53;;;;;;;9.40;5.43;;;;;;;;;;5071048;28;20056;-73
2022/05/04 09:54:23;;;;;;;15.63;8.57;;;;;;;;;;5070059;28;20062;-74
2022/05/04 09:56:53;;;;;;;7.63;5.70;;;;;;;;;;5071400;28;20028;-72
2022/05/04 09:59:21;;;;;;;13.85;7.43;;;;;;;;;;5072152;28;20179;-72
2022/05/04 10:01:48;;;;;;;6.43;4.97;;;;;;;;;;5074249;28;20020;-76
2022/05/04 10:04:15;;;;;;;5.95;5.35;;;;;;;;;;5073882;28;20039;-77
2022/05/04 10:06:42;;;;;;;5.97;4.93;;;;;;;;;;5074428;28;20047;-72
2022/05/04 10:09:08;;;;;;;6.15;5.22;;;;;;;;;;5076328;28;20039;-72
2022/05/04 10:11:35;;;;;;;8.80;5.90;;;;;;;;;;5077391;28;20595;-73
2022/05/04 10:14:10;;;;;;;10.93;6.90;;;;;;;;;;5079029;28;20169;-73
2022/05/04 10:16:56;;;;;;;7.72;6.20;;;;;;;;;;5076975;28;20028;-73
2022/05/04 10:19:45;;;;;;;8.00;5.05;;;;;;;;;;5078509;28;20036;-73
2022/05/04 10:22:14;;;;;;;7.65;5.40;;;;;;;;;;5070414;28;20081;-72
2022/05/04 10:24:42;;;;;;;8.50;5.65;;;;;;;;;;5071088;28;20515;-73
2022/05/04 10:27:23;;;;;;;10.07;7.25;;;;;;;;;;5078037;28;20052;-73
2022/05/04 10:32:35;;;;;;;5.93;5.35;;;;;;;;;;5065507;28;20560;-72
2022/05/04 10:35:13;;;;;;;13.70;8.02;;;;;;;;;;5070930;28;20459;-74
2022/05/04 10:37:58;;;;;;;10.23;7.22;;;;;;;;;;5078117;28;20028;-73
2022/05/04 10:40:34;;;;;;;14.40;8.77;;;;;;;;;;5078494;28;20459;-74
2022/05/04 10:43:03;;;;;;;9.13;6.55;;;;;;;;;;5076010;28;20031;-72
2022/05/04 10:45:39;;;;;;;7.78;5.90;;;;;;;;;;5073652;28;20032;-74
2022/05/04 10:48:14;;;;;;;14.93;8.10;;;;;;;;;;5068398;28;20036;-74
2022/05/04 10:50:55;;;;;;;12.45;8.05;;;;;;;;;;5078761;28;20032;-72
2022/05/04 10:53:25;;;;;;;9.30;6.15;;;;;;;;;;5078757;28;20020;-74
2022/05/04 10:56:03;;;;;;;8.82;6.38;;;;;;;;;;5079296;28;20024;-73
2022/05/04 10:58:47;;;;;;;20.70;11.77;;;;;;;;;;5078498;28;20143;-73
2022/05/04 11:01:22;;;;;;;13.30;8.30;;;;;;;;;;5078689;28;20024;-72
2022/05/04 11:03:52;;;;;;;15.75;7.75;;;;;;;;;;5078662;28;20040;-77
2022/05/04 11:06:29;;;;;;;7.30;6.60;;;;;;;;;;5075726;28;20551;-74
2022/05/04 11:08:59;;;;;;;8.32;6.70;;;;;;;;;;5072792;28;20040;-72
2022/05/04 11:11:26;;;;;;;15.75;9.48;;;;;;;;;;5079010;28;20089;-72
2022/05/04 11:13:53;;;;;;;41.95;18.38;;;;;;;;;;5078323;28;20452;-73
2022/05/04 11:16:23;;;;;;;16.00;10.77;;;;;;;;;;5076735;28;20035;-74
2022/05/04 11:18:50;;;;;;;21.92;12.20;;;;;;;;;;5079198;28;20400;-73
2022/05/04 11:21:17;;;;;;;19.38;10.77;;;;;;;;;;5074938;28;20646;-73
2022/05/04 11:23:51;;;;;;;24.13;12.32;;;;;;;;;;5071204;28;20117;-73
2022/05/04 11:26:18;;;;;;;10.55;7.63;;;;;;;;;;5076045;28;20502;-77
2022/05/04 11:28:45;;;;;;;29.50;13.13;;;;;;;;;;5082484;28;20028;-77
2022/05/04 11:31:11;;;;;;;23.52;11.25;;;;;;;;;;5081900;28;20131;-73
2022/05/04 11:33:37;;;;;;;16.23;9.23;;;;;;;;;;5080219;28;20035;-73
2022/05/04 11:36:04;;;;;;;7.72;7.00;;;;;;;;;;5081701;28;20251;-73
2022/05/04 11:38:30;;;;;;;24.42;8.55;;;;;;;;;;5081441;28;20036;-74
2022/05/04 11:40:56;;;;;;;28.58;13.93;;;;;;;;;;5082132;28;20530;-73
2022/05/04 11:43:22;;;;;;;20.20;11.02;;;;;;;;;;5081790;28;20039;-72
2022/05/04 11:45:49;;;;;;;27.35;13.93;;;;;;;;;;5081975;28;20039;-73
2022/05/04 11:48:18;;;;;;;11.38;8.05;;;;;;;;;;5081979;28;20028;-74
2022/05/04 11:50:44;;;;;;;17.98;9.25;;;;;;;;;;5081734;28;20546;-72
2022/05/04 11:53:11;;;;;;;13.95;9.25;;;;;;;;;;5081568;28;20027;-71
2022/05/04 11:55:37;;;;;;;7.20;6.45;;;;;;;;;;5082100;28;20419;-72
2022/05/04 11:58:14;;;;;;;10.07;6.53;;;;;;;;;;5079403;28;20028;-72
2022/05/04 12:00:40;;;;;;;10.23;6.25;;;;;;;;;;5076494;28;20047;-75
2022/05/04 12:03:07;;;;;;;7.55;6.30;;;;;;;;;;5080084;28;20032;-73
2022/05/04 12:05:34;;;;;;;12.80;8.02;;;;;;;;;;5081298;28;20023;-72
2022/05/04 12:08:00;;;;;;;8.57;7.68;;;;;;;;;;5080468;28;20064;-73
2022/05/04 12:10:27;;;;;;;7.35;6.65;;;;;;;;;;5080896;28;20047;-72
2022/05/04 12:12:53;;;;;;;11.70;7.15;;;;;;;;;;5081206;28;20032;-73
2022/05/04 12:15:23;;;;;;;8.07;7.35;;;;;;;;;;5078583;28;20551;-73
2022/05/04 12:17:50;;;;;;;9.45;8.18;;;;;;;;;;5081132;28;20731;-73
2022/05/04 12:20:19;;;;;;;9.52;7.20;;;;;;;;;;5079302;28;20034;-73
2022/05/04 12:22:45;;;;;;;11.88;7.63;;;;;;;;;;5078916;28;20491;-75
2022/05/04 12:25:11;;;;;;;10.20;7.95;;;;;;;;;;5079840;28;20043;-73
2022/05/04 12:27:38;;;;;;;7.68;6.93;;;;;;;;;;5080948;28;20032;-74
2022/05/04 12:33:08;;;;;;;10.18;7.38;;;;;;;;;;5071760;28;20038;-72
2022/05/04 12:35:35;;;;;;;8.05;6.07;;;;;;;;;;5081259;28;20036;-74
2022/05/04 12:38:03;;;;;;;7.80;6.40;;;;;;;;;;5082916;28;20532;-73
2022/05/04 12:40:31;;;;;;;11.20;8.05;;;;;;;;;;5082137;28;20043;-72
2022/05/04 12:42:59;;;;;;;10.32;8.02;;;;;;;;;;5082439;28;20088;-75
2022/05/04 12:45:25;;;;;;;16.00;9.88;;;;;;;;;;5081949;28;20036;-74
2022/05/04 12:47:52;;;;;;;10.20;7.93;;;;;;;;;;5080794;28;20427;-72
2022/05/04 12:50:20;;;;;;;10.65;7.13;;;;;;;;;;5078998;28;20048;-73
2022/05/04 12:52:46;;;;;;;7.40;6.70;;;;;;;;;;5079349;28;20024;-73
2022/05/04 12:55:12;;;;;;;9.98;7.60;;;;;;;;;;5078741;28;20032;-73
2022/05/04 12:57:38;;;;;;;10.23;7.35;;;;;;;;;;5080388;28;20024;-73
2022/05/04 13:00:05;;;;;;;9.30;6.90;;;;;;;;;;5082131;28;20039;-73
2022/05/04 13:02:31;;;;;;;9.10;6.65;;;;;;;;;;5077526;28;20032;-74
2022/05/04 13:04:57;;;;;;;9.68;7.20;;;;;;;;;;5079116;28;20032;-76
2022/05/04 13:07:23;;;;;;;7.47;6.70;;;;;;;;;;5081476;28;20050;-73
2022/05/04 13:09:50;;;;;;;9.63;6.55;;;;;;;;;;5082134;28;20024;-74
2022/05/04 13:12:16;;;;;;;9.77;7.68;;;;;;;;;;5082910;28;20020;-73
2022/05/04 13:14:42;;;;;;;15.70;8.05;;;;;;;;;;5082100;28;20103;-74
2022/05/04 13:17:08;;;;;;;9.75;7.78;;;;;;;;;;5083049;28;20414;-74
2022/05/04 13:19:36;;;;;;;11.38;7.18;;;;;;;;;;5082018;28;20032;-73
2022/05/04 13:22:02;;;;;;;21.92;10.50;;;;;;;;;;5082382;28;20069;-73
2022/05/04 13:24:28;;;;;;;12.90;7.88;;;;;;;;;;5081648;28;20038;-74
2022/05/04 13:26:54;;;;;;;11.32;8.23;;;;;;;;;;5082469;28;20633;-73
2022/05/04 13:29:20;;;;;;;11.68;7.38;;;;;;;;;;5082169;28;20040;-73
2022/05/04 13:31:49;;;;;;;12.07;9.05;;;;;;;;;;5082252;28;20024;-73
2022/05/04 13:34:15;;;;;;;19.65;9.57;;;;;;;;;;5082343;28;20049;-72
2022/05/04 13:36:41;;;;;;;12.52;7.82;;;;;;;;;;5082044;28;20028;-73
2022/05/04 13:39:08;;;;;;;8.98;7.00;;;;;;;;;;5082148;28;20031;-73
2022/05/04 13:41:34;;;;;;;7.90;5.82;;;;;;;;;;5082086;28;20646;-73
2022/05/04 13:44:00;;;;;;;7.90;6.10;;;;;;;;;;5082215;28;20020;-73
2022/05/04 13:46:28;;;;;;;10.60;6.65;;;;;;;;;;5081147;28;20028;-73
2022/05/04 13:48:56;;;;;;;7.93;6.10;;;;;;;;;;5081284;28;20037;-73
2022/05/04 13:54:08;;;;;;;6.35;5.68;;;;;;;;;;5082186;28;20096;-73
2022/05/04 13:56:34;;;;;;;7.30;6.10;;;;;;;;;;5080610;28;20028;-73
2022/05/04 13:59:01;;;;;;;8.35;6.50;;;;;;;;;;5081670;28;20020;-76
2022/05/04 14:01:27;;;;;;;7.63;6.40;;;;;;;;;;5081626;28;20077;-72
2022/05/04 14:03:54;;;;;;;10.82;7.72;;;;;;;;;;5081847;28;20028;-73
2022/05/04 14:06:20;;;;;;;8.07;7.00;;;;;;;;;;5081004;28;20040;-74
2022/05/04 14:08:49;;;;;;;10.00;6.65;;;;;;;;;;5080943;28;20028;-74
2022/05/04 14:11:15;;;;;;;8.68;6.45;;;;;;;;;;5081566;28;20032;-73
2022/05/04 14:13:42;;;;;;;11.57;8.48;;;;;;;;;;5082388;28;20500;-73
2022/05/04 14:16:10;;;;;;;11.13;7.97;;;;;;;;;;5081855;28;20031;-73
2022/05/04 14:18:37;;;;;;;12.73;6.25;;;;;;;;;;5081221;28;20336;-73
2022/05/04 14:21:04;;;;;;;7.95;6.90;;;;;;;;;;5080371;28;20089;-75
2022/05/04 14:23:30;;;;;;;7.72;6.70;;;;;;;;;;5081384;28;20455;-73
2022/05/04 14:25:57;;;;;;;8.27;7.03;;;;;;;;;;5081258;28;20565;-74
2022/05/04 14:28:28;;;;;;;10.75;6.57;;;;;;;;;;5081520;28;20024;-73
2022/05/04 14:30:54;;;;;;;8.13;6.27;;;;;;;;;;5081447;28;20467;-73
2022/05/04 14:33:20;;;;;;;6.15;5.55;;;;;;;;;;5080910;28;20074;-73
2022/05/04 14:35:46;;;;;;;7.28;6.43;;;;;;;;;;5081250;28;20035;-74
2022/05/04 14:38:12;;;;;;;6.97;5.20;;;;;;;;;;5081271;28;20111;-78
2022/05/04 14:40:39;;;;;;;7.55;6.38;;;;;;;;;;5081082;28;20049;-74
2022/05/04 14:43:05;;;;;;;11.88;8.68;;;;;;;;;;5081245;28;20069;-76
2022/05/04 14:45:31;;;;;;;12.18;7.47;;;;;;;;;;5081273;28;20043;-73
2022/05/04 14:47:57;;;;;;;8.38;6.85;;;;;;;;;;5081427;28;20027;-73
2022/05/04 14:50:24;;;;;;;14.35;7.82;;;;;;;;;;5080998;28;20032;-72
2022/05/04 14:52:50;;;;;;;8.68;6.63;;;;;;;;;;5080463;28;20834;-73
2022/05/04 14:55:17;;;;;;;7.85;6.65;;;;;;;;;;5081023;28;20028;-73
2022/05/04 14:57:43;;;;;;;8.00;6.32;;;;;;;;;;5083433;28;20032;-73
2022/05/04 15:00:09;;;;;;;8.52;6.13;;;;;;;;;;5084652;28;20487;-74
2022/05/04 15:05:01;;;;;;;12.48;6.72;;;;;;;;;;5084850;28;20983;-73
2022/05/04 15:05:21;;;;;;;7.90;6.13;;;;;;;;;;5082912;28;20238;-74
2022/05/04 15:07:49;;;;;;;6.80;6.10;;;;;;;;;;5082581;28;20044;-73
2022/05/04 15:10:16;;;;;;;6.70;5.75;;;;;;;;;;5085039;28;20032;-73
2022/05/04 15:12:42;;;;;;;8.63;6.25;;;;;;;;;;5084836;28;20024;-75
2022/05/04 15:15:08;;;;;;;9.73;6.07;;;;;;;;;;5084660;28;20020;-73